Time;durP1;ratioP1;P1;durP2;ratioP2;P2;SDS_P1;SDS_P2;PMS_P1;PMS_P2;Temp;Humidity;BMP_temperature;BMP_pressure;BME280_temperature;BME280_humidity;BME280_pressure;Samples;Min_cycle;Max_cycle;Signal;HPM_P1;HPM_P2
2022/05/27 00:01:15;;;;;;;8.15;6.45;;;13.00;99.90;;;;;;5093722;28;20489;-47
2022/05/27 00:03:40;;;;;;;13.73;7.30;;;13.00;99.90;;;;;;5112054;28;20115;-48
2022/05/27 00:06:07;;;;;;;7.78;6.22;;;13.00;99.90;;;;;;5112012;28;20111;-47
2022/05/27 00:08:34;;;;;;;10.45;6.93;;;13.00;99.90;;;;;;5112182;28;20491;-44
2022/05/27 00:11:00;;;;;;;11.63;6.70;;;13.00;99.90;;;;;;5112269;28;20016;-46
2022/05/27 00:13:27;;;;;;;11.70;6.25;;;13.00;99.90;;;;;;5093732;28;20072;-46
2022/05/27 00:15:54;;;;;;;9.73;5.72;;;13.10;99.90;;;;;;5112194;28;20028;-47
2022/05/27 00:18:20;;;;;;;10.15;6.72;;;13.00;99.90;;;;;;5111961;28;20028;-47
2022/05/27 00:20:47;;;;;;;16.83;6.45;;;13.00;99.90;;;;;;5111600;28;20401;-46
2022/05/27 00:23:12;;;;;;;13.68;7.03;;;13.00;99.90;;;;;;5111760;28;20371;-46
2022/05/27 00:25:38;;;;;;;13.70;5.53;;;13.00;99.90;;;;;;5111655;28;20068;-46
2022/05/27 00:28:04;;;;;;;11.20;6.05;;;13.00;99.90;;;;;;5112028;28;20028;-46
2022/05/27 00:30:29;;;;;;;13.05;5.85;;;13.00;99.90;;;;;;5111457;28;20069;-47
2022/05/27 00:32:56;;;;;;;12.48;5.53;;;13.10;99.90;;;;;;5111133;28;20050;-46
2022/05/27 00:35:22;;;;;;;13.77;6.28;;;13.10;99.90;;;;;;5111386;28;20385;-46
2022/05/27 00:37:48;;;;;;;7.80;4.25;;;13.00;99.90;;;;;;5111395;28;20485;-48
2022/05/27 00:40:14;;;;;;;9.18;3.97;;;12.90;99.90;;;;;;5111169;28;20075;-49
2022/05/27 00:42:41;;;;;;;13.95;5.32;;;12.90;99.90;;;;;;5110806;28;20371;-46
2022/05/27 00:45:19;;;;;;;13.75;4.00;;;12.90;99.90;;;;;;5092738;28;20024;-49
2022/05/27 00:47:46;;;;;;;6.30;3.22;;;12.80;99.90;;;;;;5111223;28;20489;-47
2022/05/27 00:50:15;;;;;;;8.27;3.28;;;12.80;99.90;;;;;;5108020;28;20028;-46
2022/05/27 00:52:43;;;;;;;10.02;3.35;;;12.70;99.90;;;;;;5110843;28;20118;-47
2022/05/27 00:55:15;;;;;;;11.15;4.43;;;12.70;99.90;;;;;;5092809;28;20027;-48
2022/05/27 00:57:48;;;;;;;9.80;3.60;;;12.70;99.90;;;;;;5092055;28;20035;-46
2022/05/27 01:00:19;;;;;;;12.90;3.33;;;12.70;99.90;;;;;;5108651;28;20149;-46
2022/05/27 01:02:46;;;;;;;7.60;3.92;;;12.70;99.90;;;;;;5108169;28;20640;-48
2022/05/27 01:05:15;;;;;;;10.85;3.92;;;12.70;99.90;;;;;;5110219;28;20103;-47
2022/05/27 01:07:41;;;;;;;9.30;3.70;;;12.60;99.90;;;;;;5092681;28;20020;-49
2022/05/27 01:10:09;;;;;;;14.10;4.30;;;12.60;99.90;;;;;;5075465;28;20385;-48
2022/05/27 01:12:53;;;;;;;11.57;3.80;;;12.60;99.90;;;;;;5110923;28;20078;-50
2022/05/27 01:15:34;;;;;;;12.77;3.13;;;12.60;99.90;;;;;;5110841;28;20019;-49
2022/05/27 01:17:59;;;;;;;12.93;4.07;;;12.60;99.90;;;;;;5110604;28;20080;-46
2022/05/27 01:20:54;;;;;;;9.80;2.92;;;12.60;99.90;;;;;;5110144;28;20098;-47
2022/05/27 01:23:37;;;;;;;16.58;3.97;;;12.60;99.90;;;;;;5110459;28;20027;-47
2022/05/27 01:26:33;;;;;;;9.77;3.58;;;12.60;99.90;;;;;;5110549;28;20435;-50
2022/05/27 01:29:22;;;;;;;18.20;3.70;;;12.50;99.90;;;;;;5111041;28;20095;-47
2022/05/27 01:31:54;;;;;;;7.95;2.95;;;12.50;99.90;;;;;;5110353;28;20072;-46
2022/05/27 01:35:01;;;;;;;11.32;3.28;;;12.40;99.90;;;;;;5092316;28;20110;-49
2022/05/27 01:37:36;;;;;;;10.35;3.47;;;12.40;99.90;;;;;;5086739;28;20039;-48
2022/05/27 01:40:12;;;;;;;12.70;2.83;;;12.40;99.90;;;;;;5110403;28;20658;-46
2022/05/27 01:42:42;;;;;;;11.98;4.40;;;12.30;99.90;;;;;;5110099;28;20035;-47
2022/05/27 01:45:36;;;;;;;9.80;2.78;;;12.30;99.90;;;;;;5110300;28;20051;-49
2022/05/27 01:48:18;;;;;;;13.57;3.67;;;12.30;99.90;;;;;;5110576;28;20039;-47
2022/05/27 01:51:08;;;;;;;11.25;2.58;;;12.20;99.90;;;;;;5074684;28;20024;-46
2022/05/27 01:53:45;;;;;;;12.27;3.35;;;12.20;99.90;;;;;;5109930;28;20038;-48
2022/05/27 01:56:26;;;;;;;16.00;3.60;;;12.10;99.90;;;;;;5110242;28;20024;-47
2022/05/27 01:59:00;;;;;;;17.27;2.72;;;12.10;99.90;;;;;;5091589;28;20513;-48
2022/05/27 02:01:37;;;;;;;11.40;3.30;;;12.00;99.90;;;;;;5109555;28;20032;-48
2022/05/27 02:04:08;;;;;;;10.60;3.13;;;12.00;99.90;;;;;;5110074;28;20430;-48
2022/05/27 02:07:03;;;;;;;7.10;2.58;;;12.00;99.90;;;;;;5110358;28;20394;-49
2022/05/27 02:09:34;;;;;;;12.27;2.83;;;11.90;99.90;;;;;;5105377;28;20027;-48
2022/05/27 02:12:07;;;;;;;6.88;3.20;;;11.90;99.90;;;;;;5109749;28;20053;-49
2022/05/27 02:14:51;;;;;;;10.88;2.38;;;11.80;99.90;;;;;;5113866;28;20036;-45
2022/05/27 02:17:24;;;;;;;7.47;3.22;;;11.70;99.90;;;;;;5114276;28;20028;-47
2022/05/27 02:19:55;;;;;;;9.63;2.80;;;11.70;99.90;;;;;;5095664;28;20486;-49
2022/05/27 02:22:27;;;;;;;11.45;2.75;;;11.60;99.90;;;;;;5114129;28;20039;-47
2022/05/27 02:25:01;;;;;;;12.05;2.78;;;11.60;99.90;;;;;;5095698;28;20024;-49
2022/05/27 02:27:33;;;;;;;11.60;3.55;;;11.50;99.90;;;;;;5095561;28;20035;-49
2022/05/27 02:30:03;;;;;;;12.48;3.03;;;11.40;99.90;;;;;;5113972;28;20020;-49
2022/05/27 02:32:32;;;;;;;7.35;2.38;;;11.40;99.90;;;;;;5113400;28;20024;-47
2022/05/27 02:35:09;;;;;;;9.70;3.00;;;11.40;99.90;;;;;;5096256;28;20020;-48
2022/05/27 02:37:46;;;;;;;6.50;2.50;;;11.30;99.90;;;;;;5114145;28;20023;-48
2022/05/27 02:40:22;;;;;;;12.38;2.63;;;11.30;99.90;;;;;;5090237;28;20036;-47
2022/05/27 02:43:17;;;;;;;10.52;2.63;;;11.30;99.90;;;;;;5103921;28;20020;-48
2022/05/27 02:46:23;;;;;;;21.48;3.67;;;11.20;99.90;;;;;;5093413;28;20469;-48
2022/05/27 02:49:00;;;;;;;10.43;2.88;;;11.20;99.90;;;;;;5101357;28;20470;-45
2022/05/27 02:51:36;;;;;;;8.25;2.75;;;11.10;99.90;;;;;;5092932;28;20043;-45
2022/05/27 02:54:15;;;;;;;14.57;3.47;;;11.10;99.90;;;;;;5093388;28;20035;-46
2022/05/27 02:56:48;;;;;;;9.52;2.78;;;11.10;99.90;;;;;;5093303;28;20031;-45
2022/05/27 02:59:17;;;;;;;10.23;2.40;;;11.00;99.90;;;;;;5074930;28;20504;-45
2022/05/27 03:01:45;;;;;;;11.18;3.20;;;11.00;99.90;;;;;;5074349;28;20553;-45
2022/05/27 03:04:10;;;;;;;7.22;2.55;;;10.90;99.90;;;;;;5074547;28;20020;-45
2022/05/27 03:07:16;;;;;;;10.27;2.08;;;10.90;99.90;;;;;;5092803;28;20032;-45
2022/05/27 03:10:03;;;;;;;11.32;2.80;;;10.90;99.90;;;;;;5010387;28;20026;-45
2022/05/27 03:13:06;;;;;;;12.80;3.00;;;10.90;99.90;;;;;;5087368;28;20769;-46
2022/05/27 03:15:50;;;;;;;7.45;2.00;;;10.90;99.90;;;;;;5092757;28;20500;-45
2022/05/27 03:18:34;;;;;;;9.50;2.53;;;10.80;99.90;;;;;;5092931;28;20185;-44
2022/05/27 03:21:17;;;;;;;8.60;2.75;;;10.80;99.90;;;;;;5092570;28;20046;-45
2022/05/27 03:24:02;;;;;;;8.35;2.63;;;10.90;99.90;;;;;;5092570;28;20024;-45
2022/05/27 03:26:50;;;;;;;11.05;2.63;;;10.80;99.90;;;;;;5092495;28;20020;-45
2022/05/27 03:29:37;;;;;;;8.63;2.65;;;10.80;99.90;;;;;;5074101;28;20056;-47
2022/05/27 03:32:44;;;;;;;10.70;2.47;;;10.80;99.90;;;;;;5073794;28;20031;-46
2022/05/27 03:35:17;;;;;;;11.03;2.13;;;10.70;99.90;;;;;;5009729;28;20069;-45
2022/05/27 03:38:03;;;;;;;10.25;2.78;;;10.70;99.90;;;;;;5009105;28;20351;-45
2022/05/27 03:40:39;;;;;;;7.15;2.65;;;10.70;99.90;;;;;;5050956;28;20501;-45
2022/05/27 03:43:06;;;;;;;6.97;2.35;;;10.70;99.90;;;;;;5091186;28;20119;-46
2022/05/27 03:45:45;;;;;;;8.73;2.67;;;10.60;99.90;;;;;;5091507;28;20020;-44
2022/05/27 03:48:11;;;;;;;7.53;2.92;;;10.60;99.90;;;;;;5074109;28;20017;-50
2022/05/27 03:50:37;;;;;;;8.57;2.42;;;10.60;99.90;;;;;;5092016;28;20028;-44
2022/05/27 03:53:02;;;;;;;4.60;1.95;;;10.60;99.90;;;;;;5091742;28;20588;-45
2022/05/27 03:55:28;;;;;;;21.67;3.00;;;10.60;99.90;;;;;;5091961;28;20032;-45
2022/05/27 03:57:54;;;;;;;12.77;3.15;;;10.60;99.90;;;;;;5092030;28;20118;-47
2022/05/27 04:00:20;;;;;;;6.80;2.60;;;10.60;99.90;;;;;;5073712;28;20035;-46
2022/05/27 04:02:46;;;;;;;13.05;2.70;;;10.60;99.90;;;;;;5056734;28;20031;-46
2022/05/27 04:05:16;;;;;;;12.63;3.30;;;10.60;99.90;;;;;;5092217;28;20028;-49
2022/05/27 04:07:42;;;;;;;13.93;2.60;;;10.50;99.90;;;;;;5057021;28;20074;-45
2022/05/27 04:10:08;;;;;;;4.68;2.22;;;10.50;99.90;;;;;;5091678;28;20226;-45
2022/05/27 04:12:35;;;;;;;9.25;2.80;;;10.60;99.90;;;;;;5091188;28;20047;-45
2022/05/27 04:15:02;;;;;;;6.75;1.92;;;10.60;99.90;;;;;;5091306;28;20053;-45
2022/05/27 04:17:30;;;;;;;7.50;1.80;;;10.60;99.90;;;;;;5073507;28;20077;-46
2022/05/27 04:19:57;;;;;;;9.88;1.77;;;10.60;99.90;;;;;;5072998;28;20031;-46
2022/05/27 04:22:22;;;;;;;7.70;2.25;;;10.60;99.90;;;;;;5072950;28;20549;-44
2022/05/27 04:24:48;;;;;;;12.93;2.83;;;10.50;99.90;;;;;;5073051;28;20028;-45
2022/05/27 04:27:16;;;;;;;8.82;2.38;;;10.50;99.90;;;;;;5091341;28;20108;-45
2022/05/27 04:29:44;;;;;;;9.73;1.80;;;10.50;99.90;;;;;;5090805;28;20031;-47
2022/05/27 04:32:10;;;;;;;9.75;2.17;;;10.50;99.90;;;;;;5090706;28;20042;-48
2022/05/27 04:34:36;;;;;;;13.18;2.17;;;10.50;99.90;;;;;;5090996;28;20504;-45
2022/05/27 04:37:02;;;;;;;7.57;2.00;;;10.50;99.90;;;;;;5090767;28;20028;-45
2022/05/27 04:39:27;;;;;;;9.98;3.28;;;10.40;99.90;;;;;;5091150;28;20052;-47
2022/05/27 04:41:53;;;;;;;10.23;2.92;;;10.40;99.90;;;;;;5072713;28;20032;-46
2022/05/27 04:44:18;;;;;;;9.30;2.00;;;10.40;99.90;;;;;;5090661;28;20047;-47
2022/05/27 04:46:45;;;;;;;9.75;2.38;;;10.40;99.90;;;;;;5091321;28;20024;-45
2022/05/27 04:49:50;;;;;;;9.63;2.50;;;10.40;99.90;;;;;;5090979;28;20092;-46
2022/05/27 04:51:57;;;;;;;14.95;2.83;;;10.40;99.90;;;;;;5090080;28;20498;-48
2022/05/27 04:54:23;;;;;;;6.55;2.05;;;10.40;99.90;;;;;;5090967;28;20132;-44
2022/05/27 04:56:49;;;;;;;10.50;2.88;;;10.40;99.90;;;;;;5090828;28;20032;-46
2022/05/27 04:59:14;;;;;;;13.13;2.65;;;10.40;99.90;;;;;;5072390;28;20401;-46
2022/05/27 05:01:40;;;;;;;9.10;2.35;;;10.40;99.90;;;;;;5090191;28;20032;-48
2022/05/27 05:04:05;;;;;;;7.43;2.20;;;10.50;99.90;;;;;;5090535;28;20032;-45
2022/05/27 05:06:31;;;;;;;4.88;1.95;;;10.50;99.90;;;;;;5072203;28;20482;-46
2022/05/27 05:08:57;;;;;;;9.45;2.78;;;10.50;99.90;;;;;;5072278;28;20112;-46
2022/05/27 05:11:22;;;;;;;13.25;2.20;;;10.50;99.90;;;;;;5090044;28;20471;-48
2022/05/27 05:13:48;;;;;;;11.50;3.10;;;10.50;99.90;;;;;;5090399;28;20028;-50
2022/05/27 05:16:13;;;;;;;7.70;2.60;;;10.50;99.90;;;;;;5072374;28;20020;-48
2022/05/27 05:18:39;;;;;;;6.00;2.20;;;10.50;99.90;;;;;;5090785;28;20036;-46
2022/05/27 05:21:05;;;;;;;7.68;2.22;;;10.60;99.90;;;;;;5071959;28;20040;-46
2022/05/27 05:23:30;;;;;;;6.78;1.90;;;10.60;99.90;;;;;;5090277;28;20351;-46
2022/05/27 05:25:56;;;;;;;6.35;2.13;;;10.60;99.90;;;;;;5090252;28;20046;-46
2022/05/27 05:28:21;;;;;;;12.43;2.90;;;10.60;99.90;;;;;;5090221;28;20375;-47
2022/05/27 05:30:47;;;;;;;7.95;2.65;;;10.70;99.90;;;;;;5090187;28;20124;-48
2022/05/27 05:33:12;;;;;;;5.80;2.00;;;10.70;99.90;;;;;;5089975;28;20028;-47
2022/05/27 05:35:38;;;;;;;8.98;2.22;;;10.80;99.90;;;;;;5090435;28;20085;-46
2022/05/27 05:38:04;;;;;;;8.98;2.40;;;10.80;99.90;;;;;;5090202;28;20024;-48
2022/05/27 05:40:30;;;;;;;9.80;2.13;;;10.90;99.90;;;;;;5089863;28;20035;-46
2022/05/27 05:42:56;;;;;;;7.90;2.03;;;11.00;99.90;;;;;;5089741;28;20024;-51
2022/05/27 05:45:22;;;;;;;11.93;2.22;;;11.10;99.90;;;;;;5089702;28;20027;-49
2022/05/27 05:47:48;;;;;;;9.40;2.00;;;11.20;99.90;;;;;;5071057;28;20022;-49
2022/05/27 05:50:15;;;;;;;5.97;1.88;;;11.30;99.90;;;;;;5071665;28;20383;-46
2022/05/27 05:52:41;;;;;;;4.65;1.63;;;11.50;99.90;;;;;;5071258;28;20032;-46
2022/05/27 05:55:08;;;;;;;10.18;2.05;;;11.70;99.90;;;;;;5090039;28;20024;-46
2022/05/27 05:57:37;;;;;;;5.63;1.52;;;11.80;99.90;;;;;;5089962;28;20028;-47
2022/05/27 06:00:03;;;;;;;10.20;2.30;;;12.00;99.90;;;;;;5054913;28;20020;-46
2022/05/27 06:02:29;;;;;;;10.23;1.90;;;12.10;99.90;;;;;;5089407;28;20433;-45
2022/05/27 06:04:56;;;;;;;3.88;1.42;;;12.20;99.90;;;;;;5089587;28;20020;-46
2022/05/27 06:07:21;;;;;;;13.80;2.60;;;12.40;99.90;;;;;;5071342;28;20028;-45
2022/05/27 06:09:47;;;;;;;11.80;2.53;;;12.50;99.90;;;;;;5089734;28;20076;-49
2022/05/27 06:12:15;;;;;;;7.07;2.17;;;12.70;99.90;;;;;;5089098;28;20112;-46
2022/05/27 06:14:41;;;;;;;9.88;2.63;;;12.80;99.90;;;;;;5071235;28;20028;-48
2022/05/27 06:17:06;;;;;;;7.05;1.92;;;12.90;99.90;;;;;;5089428;28;20038;-47
2022/05/27 06:19:32;;;;;;;6.88;1.88;;;13.00;99.90;;;;;;5070961;28;20088;-47
2022/05/27 06:21:58;;;;;;;12.85;2.40;;;13.20;99.90;;;;;;5088924;28;20055;-46
2022/05/27 06:24:23;;;;;;;5.63;2.33;;;13.30;99.90;;;;;;5089514;28;20028;-47
2022/05/27 06:26:49;;;;;;;6.75;1.88;;;13.40;99.90;;;;;;5089341;28;20044;-50
2022/05/27 06:34:43;;;;;;;7.57;2.00;;;13.70;99.90;;;;;;5089797;28;20512;-47
2022/05/27 06:37:13;;;;;;;8.45;2.38;;;13.90;99.90;;;;;;5089765;28;20095;-46
2022/05/27 06:39:39;;;;;;;3.40;1.50;;;14.00;99.90;;;;;;5071365;28;20031;-48
2022/05/27 06:42:11;;;;;;;9.00;1.55;;;14.20;99.90;;;;;;5088958;28;20020;-47
2022/05/27 06:44:37;;;;;;;10.10;1.75;;;14.20;99.90;;;;;;5089113;28;20020;-50
2022/05/27 06:47:05;;;;;;;10.48;2.92;;;14.30;99.90;;;;;;5071163;28;20486;-51
2022/05/27 06:49:31;;;;;;;8.32;1.55;;;14.50;99.90;;;;;;5089335;28;20478;-48
2022/05/27 06:51:57;;;;;;;6.45;2.15;;;14.50;99.90;;;;;;5088613;28;20089;-48
2022/05/27 06:54:23;;;;;;;10.10;2.53;;;14.50;99.90;;;;;;5089285;28;20482;-48
2022/05/27 06:56:50;;;;;;;9.23;2.38;;;14.30;99.90;;;;;;5089349;28;20020;-49
2022/05/27 06:59:16;;;;;;;11.18;2.53;;;14.00;99.90;;;;;;5090533;28;20453;-50
2022/05/27 07:01:42;;;;;;;7.85;1.83;;;13.80;99.90;;;;;;5092373;28;20027;-47
2022/05/27 07:04:09;;;;;;;6.53;2.13;;;14.00;99.90;;;;;;5074815;28;20060;-48
2022/05/27 07:06:41;;;;;;;3.25;1.35;;;14.20;99.90;;;;;;5093126;28;20028;-49
2022/05/27 07:09:07;;;;;;;7.53;2.00;;;14.50;99.90;;;;;;5093218;28;20027;-48
2022/05/27 07:11:35;;;;;;;9.65;2.28;;;14.90;99.90;;;;;;5092827;28;20020;-48
2022/05/27 07:14:01;;;;;;;12.85;2.28;;;15.10;99.90;;;;;;5075024;28;20024;-49
2022/05/27 07:16:27;;;;;;;5.43;2.05;;;15.30;99.90;;;;;;5093224;28;20028;-48
2022/05/27 07:18:54;;;;;;;6.32;1.20;;;15.50;99.90;;;;;;5092967;28;20024;-49
2022/05/27 07:21:20;;;;;;;7.57;1.95;;;15.50;99.90;;;;;;5092537;28;20038;-51
2022/05/27 07:23:46;;;;;;;6.90;2.25;;;15.60;99.90;;;;;;5092561;28;20028;-47
2022/05/27 07:26:12;;;;;;;8.40;2.00;;;15.60;99.90;;;;;;5092604;28;20016;-51
2022/05/27 07:28:38;;;;;;;7.13;1.73;;;15.80;99.90;;;;;;5092457;28;20024;-48
2022/05/27 07:31:03;;;;;;;7.30;1.98;;;15.60;99.90;;;;;;5092498;28;20073;-49
2022/05/27 07:33:29;;;;;;;10.30;2.15;;;15.50;99.90;;;;;;5092279;28;20160;-49
2022/05/27 07:35:55;;;;;;;6.57;2.00;;;15.60;99.90;;;;;;5092492;28;20103;-50
2022/05/27 07:38:22;;;;;;;7.47;1.90;;;15.60;99.90;;;;;;5092496;28;20540;-50
2022/05/27 07:40:47;;;;;;;4.90;1.30;;;15.40;99.90;;;;;;5092657;28;20032;-51
2022/05/27 07:43:13;;;;;;;9.60;2.28;;;15.20;99.90;;;;;;5092049;28;20093;-51
2022/05/27 07:45:41;;;;;;;8.60;2.33;;;15.40;99.90;;;;;;5092164;28;20438;-53
2022/05/27 07:48:08;;;;;;;8.45;1.73;;;15.70;99.90;;;;;;5092547;28;20084;-49
2022/05/27 07:50:34;;;;;;;5.32;1.35;;;16.00;99.90;;;;;;5092426;28;20024;-52
2022/05/27 07:53:00;;;;;;;6.70;1.83;;;16.10;99.90;;;;;;5092355;28;20036;-48
2022/05/27 07:55:26;;;;;;;5.60;1.73;;;16.30;99.90;;;;;;5092269;28;20024;-47
2022/05/27 07:57:52;;;;;;;7.03;1.75;;;16.20;98.30;;;;;;5092214;28;20363;-48
2022/05/27 08:00:22;;;;;;;4.20;1.60;;;16.20;99.90;;;;;;5092043;28;20485;-47
2022/05/27 08:02:48;;;;;;;7.50;1.80;;;15.90;98.70;;;;;;5073642;28;20455;-47
2022/05/27 08:05:20;;;;;;;5.40;1.48;;;15.60;98.00;;;;;;5092038;28;20028;-50
2022/05/27 08:07:46;;;;;;;8.25;1.67;;;15.20;99.30;;;;;;5091968;28;20031;-48
2022/05/27 08:10:13;;;;;;;10.10;2.08;;;15.00;99.50;;;;;;5091335;28;20036;-49
2022/05/27 08:12:40;;;;;;;3.40;1.50;;;14.50;99.90;;;;;;5091570;28;20024;-51
2022/05/27 08:15:08;;;;;;;5.38;2.05;;;14.00;99.90;;;;;;5091794;28;20476;-50
2022/05/27 08:17:34;;;;;;;7.28;1.67;;;13.50;99.90;;;;;;5091752;28;20032;-49
2022/05/27 08:20:00;;;;;;;3.53;1.10;;;12.90;99.90;;;;;;5091601;28;20028;-52
2022/05/27 08:22:26;;;;;;;5.70;1.58;;;12.70;99.90;;;;;;5091657;28;20367;-49
2022/05/27 08:24:51;;;;;;;4.68;0.98;;;12.70;99.90;;;;;;5091609;28;20512;-51
2022/05/27 08:27:17;;;;;;;4.70;1.63;;;12.90;99.90;;;;;;5056938;28;20555;-48
2022/05/27 08:29:42;;;;;;;3.97;1.10;;;13.30;99.90;;;;;;5092117;28;20028;-48
2022/05/27 08:32:08;;;;;;;6.03;1.65;;;13.80;99.90;;;;;;5091319;28;20451;-52
2022/05/27 08:40:30;;;;;;;4.10;1.38;;;15.00;99.90;;;;;;5091528;28;20615;-49
2022/05/27 08:43:14;;;;;;;6.78;1.83;;;15.40;99.90;;;;;;5063449;28;20032;-47
2022/05/27 08:46:09;;;;;;;4.07;1.40;;;15.60;99.90;;;;;;5090430;28;20016;-48
2022/05/27 08:48:38;;;;;;;8.07;2.40;;;15.70;99.90;;;;;;5090796;28;20016;-50
2022/05/27 08:51:20;;;;;;;4.90;1.52;;;15.70;99.90;;;;;;5090679;28;20036;-47
2022/05/27 08:54:06;;;;;;;6.10;1.65;;;15.90;99.90;;;;;;5103508;22;20047;-47
2022/05/27 09:00:03;;;;;;;6.50;1.92;;;16.20;99.90;;;;;;5074460;28;20032;-48
2022/05/27 09:02:55;;;;;;;7.30;1.58;;;16.40;99.90;;;;;;5090530;28;20023;-49
2022/05/27 09:05:32;;;;;;;7.97;2.05;;;16.40;97.30;;;;;;5070922;28;20032;-49
2022/05/27 09:08:19;;;;;;;8.65;2.67;;;16.20;94.60;;;;;;5070885;28;20032;-45
2022/05/27 09:10:59;;;;;;;11.48;2.38;;;16.30;98.70;;;;;;5071008;28;20081;-48
2022/05/27 09:13:39;;;;;;;7.97;1.90;;;16.10;96.20;;;;;;5070206;28;20086;-51
2022/05/27 09:16:43;;;;;;;5.60;1.73;;;16.00;98.00;;;;;;5070546;28;20056;-49
2022/05/27 09:19:23;;;;;;;5.07;1.60;;;16.20;94.10;;;;;;5070596;28;20028;-49
2022/05/27 09:22:00;;;;;;;4.90;2.03;;;16.30;92.10;;;;;;5070199;28;20040;-48
2022/05/27 09:24:35;;;;;;;6.93;1.80;;;16.40;97.30;;;;;;5070455;28;20043;-48
2022/05/27 09:27:08;;;;;;;7.18;1.70;;;16.60;93.40;;;;;;5070468;28;20116;-52
2022/05/27 09:30:04;;;;;;;6.57;1.88;;;16.50;93.40;;;;;;5070400;28;20491;-46
2022/05/27 09:32:53;;;;;;;6.60;1.65;;;16.50;95.90;;;;;;5070029;28;20210;-49
2022/05/27 09:35:25;;;;;;;6.07;1.67;;;16.50;91.30;;;;;;5070294;28;20021;-49
2022/05/27 09:37:53;;;;;;;7.38;1.83;;;16.40;94.20;;;;;;5070187;28;20067;-46
2022/05/27 09:40:35;;;;;;;6.90;1.95;;;16.30;92.30;;;;;;5070143;28;20163;-47
2022/05/27 09:43:10;;;;;;;6.90;2.10;;;16.10;95.30;;;;;;5069867;28;20501;-47
2022/05/27 09:45:36;;;;;;;9.27;2.78;;;15.90;95.80;;;;;;5070182;28;20021;-47
2022/05/27 09:48:06;;;;;;;9.25;2.50;;;15.80;97.30;;;;;;5070588;28;20021;-52
2022/05/27 09:50:50;;;;;;;5.07;2.13;;;15.70;99.90;;;;;;5068900;28;20021;-51
2022/05/27 09:53:19;;;;;;;5.43;1.73;;;14.90;99.90;;;;;;5069745;28;20040;-47
2022/05/27 09:55:53;;;;;;;7.40;1.23;;;14.40;99.90;;;;;;5070080;28;20149;-47
2022/05/27 09:58:25;;;;;;;6.60;1.65;;;14.10;99.90;;;;;;5069943;28;20108;-47
2022/05/27 10:00:51;;;;;;;7.47;2.05;;;14.20;99.90;;;;;;5069685;28;20020;-47
2022/05/27 10:03:33;;;;;;;7.00;1.88;;;14.30;99.90;;;;;;5068238;28;20111;-47
2022/05/27 10:06:05;;;;;;;9.43;2.33;;;14.40;99.90;;;;;;5069930;28;20074;-46
2022/05/27 10:08:32;;;;;;;10.38;2.13;;;14.60;99.90;;;;;;5068641;28;20031;-48
2022/05/27 10:11:15;;;;;;;12.73;3.08;;;14.80;99.90;;;;;;5069815;28;20040;-49
2022/05/27 10:13:42;;;;;;;9.57;2.25;;;15.00;99.90;;;;;;5069715;28;20067;-48
2022/05/27 10:16:25;;;;;;;9.50;2.25;;;15.00;99.90;;;;;;5069642;28;20098;-51
2022/05/27 10:19:21;;;;;;;9.75;2.53;;;15.00;99.90;;;;;;5069816;28;20032;-52
2022/05/27 10:22:00;;;;;;;10.13;2.08;;;14.70;99.90;;;;;;5069306;28;20119;-48
2022/05/27 10:24:38;;;;;;;10.65;2.05;;;14.40;99.90;;;;;;5069828;28;20104;-45
2022/05/27 10:27:17;;;;;;;9.95;2.05;;;14.40;99.90;;;;;;5070126;28;20017;-47
2022/05/27 10:30:09;;;;;;;9.95;2.13;;;14.50;99.90;;;;;;5069825;28;20046;-46
2022/05/27 10:32:43;;;;;;;5.57;2.13;;;14.70;99.90;;;;;;5053322;28;20108;-46
2022/05/27 10:35:21;;;;;;;10.13;2.60;;;14.90;99.90;;;;;;5072688;28;20031;-47
2022/05/27 10:38:21;;;;;;;7.65;2.42;;;15.00;99.90;;;;;;5073760;28;20127;-46
2022/05/27 10:41:01;;;;;;;8.35;2.45;;;15.00;99.90;;;;;;5072256;28;20438;-45
2022/05/27 10:43:29;;;;;;;8.35;2.05;;;15.00;99.90;;;;;;5073053;28;20524;-46
2022/05/27 10:45:57;;;;;;;8.30;1.73;;;15.00;99.90;;;;;;5073298;28;20044;-46
2022/05/27 10:48:47;;;;;;;8.07;1.85;;;14.60;99.90;;;;;;5073345;28;20017;-46
2022/05/27 10:51:36;;;;;;;7.72;2.03;;;14.20;99.90;;;;;;5073168;28;20031;-46
2022/05/27 10:54:32;;;;;;;5.57;1.88;;;13.70;99.90;;;;;;5073064;28;20140;-49
2022/05/27 11:03:11;;;;;;;9.85;1.90;;;13.70;99.90;;;;;;5072777;28;20040;-45
2022/05/27 11:06:04;;;;;;;5.85;1.83;;;13.80;99.90;;;;;;5073349;28;20059;-47
2022/05/27 11:08:33;;;;;;;9.48;2.20;;;14.00;99.90;;;;;;5073279;28;20032;-46
2022/05/27 11:11:01;;;;;;;10.32;2.35;;;14.00;99.90;;;;;;5072970;28;20021;-47
2022/05/27 11:17:01;;;;;;;9.50;2.05;;;14.40;99.90;;;;;;5071464;28;20425;-49
2022/05/27 11:19:47;;;;;;;9.35;3.08;;;14.40;99.90;;;;;;5072567;28;20032;-46
2022/05/27 11:22:26;;;;;;;6.28;2.03;;;14.30;99.90;;;;;;5072584;28;20020;-46
2022/05/27 11:25:12;;;;;;;7.10;2.00;;;13.90;99.90;;;;;;5072713;28;20363;-48
2022/05/27 11:27:46;;;;;;;;;;;13.60;99.90;;;;;;5073117;28;20471;-48
2022/05/27 11:30:31;;;;;;;4.88;1.90;;;13.30;99.90;;;;;;5072662;28;19954;-50
2022/05/27 11:33:30;;;;;;;6.80;1.63;;;13.10;99.90;;;;;;5072380;28;20017;-46
2022/05/27 11:36:15;;;;;;;7.97;1.88;;;13.20;99.90;;;;;;5072634;28;20020;-51
2022/05/27 11:38:52;;;;;;;9.30;2.40;;;13.40;99.90;;;;;;5072461;28;20056;-49
2022/05/27 11:41:37;;;;;;;11.43;2.38;;;13.60;99.90;;;;;;5072238;28;20017;-47
2022/05/27 11:44:22;;;;;;;10.98;2.28;;;13.80;99.90;;;;;;5072251;28;20036;-44
2022/05/27 11:46:47;;;;;;;5.05;1.67;;;14.20;99.90;;;;;;5071487;28;20016;-49
2022/05/27 11:49:39;;;;;;;7.72;2.33;;;14.40;99.90;;;;;;5072308;28;20533;-46
2022/05/27 11:52:16;;;;;;;4.78;1.52;;;14.40;99.90;;;;;;5072079;28;20016;-52
2022/05/27 11:55:10;;;;;;;10.77;3.65;;;14.20;99.90;;;;;;5071995;28;20093;-47
2022/05/27 11:57:58;;;;;;;12.85;3.20;;;14.00;99.90;;;;;;5072176;28;20017;-46
2022/05/27 12:00:28;;;;;;;12.55;2.97;;;14.10;99.90;;;;;;5072147;28;20103;-46
2022/05/27 12:03:07;;;;;;;7.30;2.42;;;14.30;99.90;;;;;;5071492;28;20062;-47
2022/05/27 12:05:41;;;;;;;10.57;3.08;;;14.30;99.90;;;;;;5072216;28;20048;-47
2022/05/27 12:08:19;;;;;;;8.35;2.47;;;14.10;99.90;;;;;;5071901;28;20028;-47
2022/05/27 12:10:54;;;;;;;11.98;2.15;;;13.90;99.90;;;;;;5070726;28;20025;-46
2022/05/27 12:13:31;;;;;;;9.60;2.05;;;14.00;99.90;;;;;;5071403;28;20060;-46
2022/05/27 12:16:09;;;;;;;10.60;2.25;;;14.20;99.90;;;;;;5071836;28;20029;-46
2022/05/27 12:18:51;;;;;;;12.52;1.92;;;14.50;99.90;;;;;;5071754;28;20049;-45
2022/05/27 12:21:20;;;;;;;6.88;1.60;;;14.50;99.90;;;;;;5070193;28;20028;-46
2022/05/27 12:23:58;;;;;;;4.43;1.40;;;14.70;99.90;;;;;;5071797;28;20036;-46
2022/05/27 12:26:33;;;;;;;8.40;2.00;;;15.00;99.90;;;;;;5071516;28;20024;-46
2022/05/27 12:29:03;;;;;;;5.88;2.00;;;15.00;99.90;;;;;;5071277;28;20577;-47
2022/05/27 12:31:31;;;;;;;6.95;1.80;;;15.10;99.90;;;;;;5071204;28;20112;-47
2022/05/27 12:33:57;;;;;;;4.82;1.52;;;15.30;99.90;;;;;;5071163;28;20031;-49
2022/05/27 12:36:27;;;;;;;5.50;2.13;;;15.60;99.90;;;;;;5071376;28;20115;-46
2022/05/27 12:38:55;;;;;;;11.27;1.92;;;15.70;99.90;;;;;;5070002;28;20024;-47
2022/05/27 12:41:36;;;;;;;7.43;2.10;;;15.60;99.90;;;;;;5070898;28;20020;-52
2022/05/27 12:44:22;;;;;;;9.77;2.55;;;15.50;99.40;;;;;;5070595;28;20024;-48
2022/05/27 12:46:54;;;;;;;7.53;2.35;;;15.20;99.90;;;;;;5070970;28;20020;-47
2022/05/27 12:49:19;;;;;;;4.22;1.73;;;15.20;99.90;;;;;;5070810;28;20376;-50
2022/05/27 12:51:46;;;;;;;6.65;1.33;;;15.30;99.90;;;;;;5070742;28;20113;-47
2022/05/27 12:54:57;;;;;;;7.35;1.23;;;15.30;99.90;;;;;;5070844;28;20086;-50
2022/05/27 13:03:34;;;;;;;8.15;1.55;;;15.40;99.30;;;;;;5070352;28;20245;-50
2022/05/27 13:06:32;;;;;;;8.48;2.25;;;15.20;99.10;;;;;;5070805;28;20103;-48
2022/05/27 13:09:04;;;;;;;6.65;1.75;;;15.20;99.90;;;;;;5070793;28;20374;-51
2022/05/27 13:11:38;;;;;;;9.50;1.58;;;15.10;99.90;;;;;;5070389;28;20028;-48
2022/05/27 13:14:04;;;;;;;7.57;2.65;;;15.10;99.90;;;;;;5070521;28;20017;-47
2022/05/27 13:16:45;;;;;;;10.52;2.53;;;15.10;99.90;;;;;;5070463;28;20020;-49
2022/05/27 13:19:33;;;;;;;5.90;1.85;;;15.10;99.90;;;;;;5070668;28;20437;-51
2022/05/27 13:22:03;;;;;;;8.30;1.92;;;15.40;99.90;;;;;;5070403;28;20028;-52
2022/05/27 13:24:33;;;;;;;5.35;2.10;;;15.50;99.90;;;;;;5070257;28;20021;-53
2022/05/27 13:27:32;;;;;;;7.97;2.50;;;15.40;99.90;;;;;;5070427;28;20021;-50
2022/05/27 13:30:04;;;;;;;10.23;1.92;;;14.90;99.90;;;;;;5067843;28;20398;-54
2022/05/27 13:32:59;;;;;;;8.32;2.58;;;14.50;99.90;;;;;;5070199;28;20021;-47
2022/05/27 13:35:27;;;;;;;6.68;1.67;;;14.20;99.90;;;;;;5065752;28;20470;-46
2022/05/27 13:37:56;;;;;;;9.63;2.15;;;13.90;99.90;;;;;;5070755;28;20049;-48
2022/05/27 13:40:31;;;;;;;10.15;3.08;;;13.90;99.90;;;;;;5070391;28;20036;-51
2022/05/27 13:43:04;;;;;;;11.88;2.38;;;14.10;99.90;;;;;;5069913;28;20032;-53
2022/05/27 13:46:00;;;;;;;6.78;3.00;;;14.30;99.90;;;;;;5070019;28;20025;-51